sensor_id;sensor_type;location;lat;lon;timestamp;P1;durP1;ratioP1;P2;durP2;ratioP2
30247;SDS011;17063;50.892;4.702;2023-04-03T00:00:09;5.23;;;3.33;;
30247;SDS011;17063;50.892;4.702;2023-04-03T00:02:37;9.97;;;5.47;;
30247;SDS011;17063;50.892;4.702;2023-04-03T00:05:04;5.07;;;3.63;;
30247;SDS011;17063;50.892;4.702;2023-04-03T00:07:31;5.60;;;3.20;;
30247;SDS011;17063;50.892;4.702;2023-04-03T00:09:58;4.70;;;3.17;;
30247;SDS011;17063;50.892;4.702;2023-04-03T00:12:25;4.63;;;3.50;;
30247;SDS011;17063;50.892;4.702;2023-04-03T00:15:18;5.83;;;3.60;;
30247;SDS011;17063;50.892;4.702;2023-04-03T00:17:45;6.77;;;3.70;;
30247;SDS011;17063;50.892;4.702;2023-04-03T00:20:12;8.43;;;3.97;;
30247;SDS011;17063;50.892;4.702;2023-04-03T00:22:39;5.57;;;3.10;;
30247;SDS011;17063;50.892;4.702;2023-04-03T00:25:06;6.17;;;3.43;;
30247;SDS011;17063;50.892;4.702;2023-04-03T00:27:36;5.23;;;3.37;;
30247;SDS011;17063;50.892;4.702;2023-04-03T00:30:04;7.27;;;4.10;;
30247;SDS011;17063;50.892;4.702;2023-04-03T00:32:33;7.97;;;3.57;;
30247;SDS011;17063;50.892;4.702;2023-04-03T00:35:01;10.20;;;4.00;;
30247;SDS011;17063;50.892;4.702;2023-04-03T00:37:28;5.17;;;3.40;;
30247;SDS011;17063;50.892;4.702;2023-04-03T00:39:54;6.97;;;3.97;;
30247;SDS011;17063;50.892;4.702;2023-04-03T00:42:22;8.33;;;3.83;;
30247;SDS011;17063;50.892;4.702;2023-04-03T00:47:16;6.73;;;3.70;;
30247;SDS011;17063;50.892;4.702;2023-04-03T00:49:44;6.63;;;3.50;;
30247;SDS011;17063;50.892;4.702;2023-04-03T00:52:13;8.13;;;3.90;;
30247;SDS011;17063;50.892;4.702;2023-04-03T00:54:42;6.87;;;3.67;;
30247;SDS011;17063;50.892;4.702;2023-04-03T00:57:10;6.30;;;3.20;;
30247;SDS011;17063;50.892;4.702;2023-04-03T00:59:39;7.20;;;3.50;;
30247;SDS011;17063;50.892;4.702;2023-04-03T01:02:11;5.47;;;3.70;;
30247;SDS011;17063;50.892;4.702;2023-04-03T01:04:41;6.53;;;3.70;;
30247;SDS011;17063;50.892;4.702;2023-04-03T01:07:14;11.77;;;4.27;;
30247;SDS011;17063;50.892;4.702;2023-04-03T01:09:43;8.07;;;3.37;;
30247;SDS011;17063;50.892;4.702;2023-04-03T01:14:51;8.40;;;3.57;;
30247;SDS011;17063;50.892;4.702;2023-04-03T01:22:29;5.13;;;3.23;;
30247;SDS011;17063;50.892;4.702;2023-04-03T01:24:57;7.43;;;4.00;;
30247;SDS011;17063;50.892;4.702;2023-04-03T01:27:25;6.23;;;3.13;;
30247;SDS011;17063;50.892;4.702;2023-04-03T01:29:52;4.53;;;3.33;;
30247;SDS011;17063;50.892;4.702;2023-04-03T01:32:19;5.17;;;3.70;;
30247;SDS011;17063;50.892;4.702;2023-04-03T01:34:46;7.70;;;3.30;;
30247;SDS011;17063;50.892;4.702;2023-04-03T01:37:13;5.50;;;3.47;;
30247;SDS011;17063;50.892;4.702;2023-04-03T01:39:40;5.60;;;3.57;;
30247;SDS011;17063;50.892;4.702;2023-04-03T01:42:07;8.80;;;4.13;;
30247;SDS011;17063;50.892;4.702;2023-04-03T01:44:38;5.93;;;3.40;;
30247;SDS011;17063;50.892;4.702;2023-04-03T01:47:05;6.27;;;3.57;;
30247;SDS011;17063;50.892;4.702;2023-04-03T01:49:34;6.33;;;3.20;;
30247;SDS011;17063;50.892;4.702;2023-04-03T01:52:01;6.40;;;3.37;;
30247;SDS011;17063;50.892;4.702;2023-04-03T01:54:28;6.07;;;3.47;;
30247;SDS011;17063;50.892;4.702;2023-04-03T01:56:55;5.17;;;3.57;;
30247;SDS011;17063;50.892;4.702;2023-04-03T01:59:22;7.00;;;3.37;;
30247;SDS011;17063;50.892;4.702;2023-04-03T02:01:50;5.97;;;3.60;;
30247;SDS011;17063;50.892;4.702;2023-04-03T02:04:17;6.63;;;3.20;;
30247;SDS011;17063;50.892;4.702;2023-04-03T02:06:44;7.13;;;3.87;;
30247;SDS011;17063;50.892;4.702;2023-04-03T02:09:11;4.33;;;3.13;;
30247;SDS011;17063;50.892;4.702;2023-04-03T02:11:38;7.57;;;3.57;;
30247;SDS011;17063;50.892;4.702;2023-04-03T02:14:05;7.63;;;3.57;;
30247;SDS011;17063;50.892;4.702;2023-04-03T02:16:33;6.40;;;3.57;;
30247;SDS011;17063;50.892;4.702;2023-04-03T02:18:59;4.43;;;3.13;;
30247;SDS011;17063;50.892;4.702;2023-04-03T02:21:28;9.07;;;3.67;;
30247;SDS011;17063;50.892;4.702;2023-04-03T02:23:55;5.30;;;3.67;;
30247;SDS011;17063;50.892;4.702;2023-04-03T02:26:22;7.13;;;3.23;;
30247;SDS011;17063;50.892;4.702;2023-04-03T02:28:49;5.70;;;4.20;;
30247;SDS011;17063;50.892;4.702;2023-04-03T02:31:16;5.93;;;4.07;;
30247;SDS011;17063;50.892;4.702;2023-04-03T02:33:45;8.00;;;3.73;;
30247;SDS011;17063;50.892;4.702;2023-04-03T02:36:14;11.73;;;4.23;;
30247;SDS011;17063;50.892;4.702;2023-04-03T02:38:44;6.40;;;3.90;;
30247;SDS011;17063;50.892;4.702;2023-04-03T02:41:12;8.97;;;4.20;;
30247;SDS011;17063;50.892;4.702;2023-04-03T02:43:39;7.90;;;4.20;;
30247;SDS011;17063;50.892;4.702;2023-04-03T02:46:06;7.03;;;3.80;;
30247;SDS011;17063;50.892;4.702;2023-04-03T02:48:34;6.67;;;3.83;;
30247;SDS011;17063;50.892;4.702;2023-04-03T02:51:01;6.10;;;3.87;;
30247;SDS011;17063;50.892;4.702;2023-04-03T02:53:28;5.60;;;4.00;;
30247;SDS011;17063;50.892;4.702;2023-04-03T02:55:56;7.37;;;4.13;;
30247;SDS011;17063;50.892;4.702;2023-04-03T02:58:23;7.30;;;3.80;;
30247;SDS011;17063;50.892;4.702;2023-04-03T03:00:51;6.77;;;4.13;;
30247;SDS011;17063;50.892;4.702;2023-04-03T03:03:18;6.30;;;3.63;;
30247;SDS011;17063;50.892;4.702;2023-04-03T03:05:45;6.23;;;4.07;;
30247;SDS011;17063;50.892;4.702;2023-04-03T03:08:12;7.60;;;4.40;;
30247;SDS011;17063;50.892;4.702;2023-04-03T03:10:39;6.53;;;4.00;;
30247;SDS011;17063;50.892;4.702;2023-04-03T03:13:06;5.73;;;3.60;;
30247;SDS011;17063;50.892;4.702;2023-04-03T03:15:33;7.77;;;4.10;;
30247;SDS011;17063;50.892;4.702;2023-04-03T03:18:01;5.13;;;3.63;;
30247;SDS011;17063;50.892;4.702;2023-04-03T03:20:28;5.07;;;4.00;;
30247;SDS011;17063;50.892;4.702;2023-04-03T03:22:55;6.87;;;3.90;;
30247;SDS011;17063;50.892;4.702;2023-04-03T03:25:22;5.67;;;3.97;;
30247;SDS011;17063;50.892;4.702;2023-04-03T03:27:48;5.20;;;3.50;;
30247;SDS011;17063;50.892;4.702;2023-04-03T03:30:15;8.53;;;4.10;;
30247;SDS011;17063;50.892;4.702;2023-04-03T03:32:42;5.23;;;3.97;;
30247;SDS011;17063;50.892;4.702;2023-04-03T03:35:09;6.93;;;4.03;;
30247;SDS011;17063;50.892;4.702;2023-04-03T03:37:36;5.50;;;3.77;;
30247;SDS011;17063;50.892;4.702;2023-04-03T03:40:03;6.07;;;4.20;;
30247;SDS011;17063;50.892;4.702;2023-04-03T03:42:31;10.40;;;4.40;;
30247;SDS011;17063;50.892;4.702;2023-04-03T03:44:58;9.30;;;4.23;;
30247;SDS011;17063;50.892;4.702;2023-04-03T03:47:25;5.20;;;3.83;;
30247;SDS011;17063;50.892;4.702;2023-04-03T03:49:52;6.20;;;3.90;;
30247;SDS011;17063;50.892;4.702;2023-04-03T03:52:19;7.67;;;4.23;;
30247;SDS011;17063;50.892;4.702;2023-04-03T03:54:47;7.05;;;4.28;;
30247;SDS011;17063;50.892;4.702;2023-04-03T03:57:15;5.10;;;4.23;;
30247;SDS011;17063;50.892;4.702;2023-04-03T03:59:42;8.15;;;3.83;;
30247;SDS011;17063;50.892;4.702;2023-04-03T04:02:10;9.70;;;4.50;;
30247;SDS011;17063;50.892;4.702;2023-04-03T04:04:37;7.97;;;4.00;;
30247;SDS011;17063;50.892;4.702;2023-04-03T04:07:04;9.30;;;4.30;;
30247;SDS011;17063;50.892;4.702;2023-04-03T04:09:32;10.93;;;4.60;;
30247;SDS011;17063;50.892;4.702;2023-04-03T04:11:59;7.00;;;4.40;;
30247;SDS011;17063;50.892;4.702;2023-04-03T04:14:28;9.73;;;4.20;;
30247;SDS011;17063;50.892;4.702;2023-04-03T04:16:55;8.48;;;4.80;;
30247;SDS011;17063;50.892;4.702;2023-04-03T04:19:25;7.37;;;4.40;;
30247;SDS011;17063;50.892;4.702;2023-04-03T04:21:53;9.33;;;4.90;;
30247;SDS011;17063;50.892;4.702;2023-04-03T04:24:19;8.27;;;4.30;;
30247;SDS011;17063;50.892;4.702;2023-04-03T04:26:48;9.77;;;4.73;;
30247;SDS011;17063;50.892;4.702;2023-04-03T04:29:16;6.70;;;4.70;;
30247;SDS011;17063;50.892;4.702;2023-04-03T04:31:47;7.00;;;4.17;;
30247;SDS011;17063;50.892;4.702;2023-04-03T04:34:15;5.53;;;4.07;;
30247;SDS011;17063;50.892;4.702;2023-04-03T04:36:42;6.43;;;4.00;;
30247;SDS011;17063;50.892;4.702;2023-04-03T04:39:10;5.60;;;3.77;;
30247;SDS011;17063;50.892;4.702;2023-04-03T04:41:37;6.30;;;3.80;;
30247;SDS011;17063;50.892;4.702;2023-04-03T04:44:05;7.87;;;4.70;;
30247;SDS011;17063;50.892;4.702;2023-04-03T04:46:32;10.37;;;4.40;;
30247;SDS011;17063;50.892;4.702;2023-04-03T04:48:59;13.30;;;5.20;;
30247;SDS011;17063;50.892;4.702;2023-04-03T04:51:28;8.17;;;4.43;;
30247;SDS011;17063;50.892;4.702;2023-04-03T04:54:07;7.50;;;4.07;;
30247;SDS011;17063;50.892;4.702;2023-04-03T04:56:35;6.18;;;4.10;;
30247;SDS011;17063;50.892;4.702;2023-04-03T04:59:03;7.77;;;4.67;;
30247;SDS011;17063;50.892;4.702;2023-04-03T05:01:30;7.72;;;4.68;;
30247;SDS011;17063;50.892;4.702;2023-04-03T05:04:10;7.40;;;4.13;;
30247;SDS011;17063;50.892;4.702;2023-04-03T05:06:39;9.75;;;4.78;;
30247;SDS011;17063;50.892;4.702;2023-04-03T05:09:10;9.40;;;4.47;;
30247;SDS011;17063;50.892;4.702;2023-04-03T05:11:41;7.43;;;4.50;;
30247;SDS011;17063;50.892;4.702;2023-04-03T05:14:11;6.70;;;4.30;;
30247;SDS011;17063;50.892;4.702;2023-04-03T05:16:38;7.70;;;4.47;;
30247;SDS011;17063;50.892;4.702;2023-04-03T05:19:06;8.40;;;4.55;;
30247;SDS011;17063;50.892;4.702;2023-04-03T05:21:33;10.18;;;4.35;;
30247;SDS011;17063;50.892;4.702;2023-04-03T05:24:06;12.05;;;4.47;;
30247;SDS011;17063;50.892;4.702;2023-04-03T05:26:38;9.27;;;4.83;;
30247;SDS011;17063;50.892;4.702;2023-04-03T05:29:06;7.63;;;4.43;;
30247;SDS011;17063;50.892;4.702;2023-04-03T05:31:34;8.98;;;4.55;;
30247;SDS011;17063;50.892;4.702;2023-04-03T05:34:02;8.85;;;4.88;;
30247;SDS011;17063;50.892;4.702;2023-04-03T05:36:32;6.77;;;4.37;;
30247;SDS011;17063;50.892;4.702;2023-04-03T05:39:03;8.60;;;4.65;;
30247;SDS011;17063;50.892;4.702;2023-04-03T05:41:33;6.18;;;3.92;;
30247;SDS011;17063;50.892;4.702;2023-04-03T05:44:00;8.73;;;4.68;;
30247;SDS011;17063;50.892;4.702;2023-04-03T05:46:27;8.77;;;4.70;;
30247;SDS011;17063;50.892;4.702;2023-04-03T05:48:56;8.27;;;4.90;;
30247;SDS011;17063;50.892;4.702;2023-04-03T05:51:29;7.65;;;4.60;;
30247;SDS011;17063;50.892;4.702;2023-04-03T05:54:13;8.93;;;5.07;;
30247;SDS011;17063;50.892;4.702;2023-04-03T05:56:44;8.13;;;4.90;;
30247;SDS011;17063;50.892;4.702;2023-04-03T05:59:12;8.03;;;4.73;;
30247;SDS011;17063;50.892;4.702;2023-04-03T06:01:39;4.80;;;4.00;;
30247;SDS011;17063;50.892;4.702;2023-04-03T06:04:07;6.07;;;3.80;;
30247;SDS011;17063;50.892;4.702;2023-04-03T06:09:33;6.93;;;3.80;;
30247;SDS011;17063;50.892;4.702;2023-04-03T06:12:01;7.33;;;3.90;;
30247;SDS011;17063;50.892;4.702;2023-04-03T06:14:29;6.93;;;3.67;;
30247;SDS011;17063;50.892;4.702;2023-04-03T06:16:59;5.00;;;3.50;;
30247;SDS011;17063;50.892;4.702;2023-04-03T06:19:26;4.20;;;3.73;;
30247;SDS011;17063;50.892;4.702;2023-04-03T06:21:55;7.60;;;3.47;;
30247;SDS011;17063;50.892;4.702;2023-04-03T06:24:25;5.27;;;3.40;;
30247;SDS011;17063;50.892;4.702;2023-04-03T06:26:55;7.33;;;3.07;;
30247;SDS011;17063;50.892;4.702;2023-04-03T06:29:23;5.83;;;3.60;;
30247;SDS011;17063;50.892;4.702;2023-04-03T06:31:50;5.20;;;3.70;;
30247;SDS011;17063;50.892;4.702;2023-04-03T06:34:17;6.20;;;3.50;;
30247;SDS011;17063;50.892;4.702;2023-04-03T06:36:45;6.33;;;4.00;;
30247;SDS011;17063;50.892;4.702;2023-04-03T06:39:16;8.63;;;3.87;;
30247;SDS011;17063;50.892;4.702;2023-04-03T06:41:46;6.77;;;3.50;;
30247;SDS011;17063;50.892;4.702;2023-04-03T06:44:14;4.97;;;3.60;;
30247;SDS011;17063;50.892;4.702;2023-04-03T06:46:42;6.93;;;4.10;;
30247;SDS011;17063;50.892;4.702;2023-04-03T06:49:10;6.90;;;3.70;;
30247;SDS011;17063;50.892;4.702;2023-04-03T06:51:37;11.67;;;3.90;;
30247;SDS011;17063;50.892;4.702;2023-04-03T06:54:04;6.20;;;3.67;;
30247;SDS011;17063;50.892;4.702;2023-04-03T06:56:32;9.57;;;3.87;;
30247;SDS011;17063;50.892;4.702;2023-04-03T06:58:59;6.17;;;3.63;;
30247;SDS011;17063;50.892;4.702;2023-04-03T07:01:27;4.53;;;3.40;;
30247;SDS011;17063;50.892;4.702;2023-04-03T07:03:55;7.73;;;3.77;;
30247;SDS011;17063;50.892;4.702;2023-04-03T07:06:22;5.07;;;3.40;;
30247;SDS011;17063;50.892;4.702;2023-04-03T07:08:49;9.47;;;3.63;;
30247;SDS011;17063;50.892;4.702;2023-04-03T07:11:16;6.33;;;3.33;;
30247;SDS011;17063;50.892;4.702;2023-04-03T07:13:43;5.23;;;3.10;;
30247;SDS011;17063;50.892;4.702;2023-04-03T07:16:11;5.43;;;3.37;;
30247;SDS011;17063;50.892;4.702;2023-04-03T07:18:39;7.67;;;3.20;;
30247;SDS011;17063;50.892;4.702;2023-04-03T07:21:05;5.13;;;3.27;;
30247;SDS011;17063;50.892;4.702;2023-04-03T07:23:32;7.77;;;3.40;;
30247;SDS011;17063;50.892;4.702;2023-04-03T07:25:59;4.93;;;3.27;;
30247;SDS011;17063;50.892;4.702;2023-04-03T07:28:26;4.73;;;3.43;;
30247;SDS011;17063;50.892;4.702;2023-04-03T07:30:54;4.40;;;3.10;;
30247;SDS011;17063;50.892;4.702;2023-04-03T07:33:26;3.97;;;2.90;;
30247;SDS011;17063;50.892;4.702;2023-04-03T07:35:53;5.83;;;3.50;;
30247;SDS011;17063;50.892;4.702;2023-04-03T07:38:21;7.10;;;3.93;;
30247;SDS011;17063;50.892;4.702;2023-04-03T07:40:48;6.23;;;3.43;;
30247;SDS011;17063;50.892;4.702;2023-04-03T07:43:16;5.03;;;3.43;;
30247;SDS011;17063;50.892;4.702;2023-04-03T07:45:44;7.27;;;3.47;;
30247;SDS011;17063;50.892;4.702;2023-04-03T07:48:12;8.30;;;3.73;;
30247;SDS011;17063;50.892;4.702;2023-04-03T07:50:40;6.03;;;3.60;;
30247;SDS011;17063;50.892;4.702;2023-04-03T07:53:09;5.73;;;3.43;;
30247;SDS011;17063;50.892;4.702;2023-04-03T07:55:36;6.73;;;3.57;;
30247;SDS011;17063;50.892;4.702;2023-04-03T07:58:13;10.70;;;3.60;;
30247;SDS011;17063;50.892;4.702;2023-04-03T08:00:45;5.60;;;3.20;;
30247;SDS011;17063;50.892;4.702;2023-04-03T08:03:15;10.43;;;3.50;;
30247;SDS011;17063;50.892;4.702;2023-04-03T08:05:47;6.00;;;3.10;;
30247;SDS011;17063;50.892;4.702;2023-04-03T08:08:18;5.70;;;3.70;;
30247;SDS011;17063;50.892;4.702;2023-04-03T08:10:48;8.83;;;3.40;;
30247;SDS011;17063;50.892;4.702;2023-04-03T08:13:16;6.10;;;3.07;;
30247;SDS011;17063;50.892;4.702;2023-04-03T08:15:44;8.27;;;3.23;;
30247;SDS011;17063;50.892;4.702;2023-04-03T08:18:11;6.73;;;3.27;;
30247;SDS011;17063;50.892;4.702;2023-04-03T08:20:41;7.77;;;3.30;;
30247;SDS011;17063;50.892;4.702;2023-04-03T08:23:09;7.87;;;3.33;;
30247;SDS011;17063;50.892;4.702;2023-04-03T08:25:38;5.40;;;3.20;;
30247;SDS011;17063;50.892;4.702;2023-04-03T08:28:06;4.87;;;3.03;;
30247;SDS011;17063;50.892;4.702;2023-04-03T08:30:34;5.20;;;2.80;;
30247;SDS011;17063;50.892;4.702;2023-04-03T08:33:01;7.77;;;3.27;;
30247;SDS011;17063;50.892;4.702;2023-04-03T08:35:29;12.67;;;3.33;;
30247;SDS011;17063;50.892;4.702;2023-04-03T08:37:56;4.40;;;3.00;;
30247;SDS011;17063;50.892;4.702;2023-04-03T08:40:23;5.20;;;2.80;;
30247;SDS011;17063;50.892;4.702;2023-04-03T08:43:46;11.33;;;3.00;;
30247;SDS011;17063;50.892;4.702;2023-04-03T08:45:55;5.40;;;2.40;;
30247;SDS011;17063;50.892;4.702;2023-04-03T08:50:50;6.30;;;2.40;;
30247;SDS011;17063;50.892;4.702;2023-04-03T08:53:24;7.40;;;2.40;;
30247;SDS011;17063;50.892;4.702;2023-04-03T08:55:55;7.50;;;3.07;;
30247;SDS011;17063;50.892;4.702;2023-04-03T08:58:23;5.17;;;2.20;;
30247;SDS011;17063;50.892;4.702;2023-04-03T09:04:11;5.13;;;2.00;;
30247;SDS011;17063;50.892;4.702;2023-04-03T09:06:45;4.73;;;2.00;;
30247;SDS011;17063;50.892;4.702;2023-04-03T09:09:27;5.37;;;2.17;;
30247;SDS011;17063;50.892;4.702;2023-04-03T09:18:20;5.37;;;2.00;;
30247;SDS011;17063;50.892;4.702;2023-04-03T09:23:48;4.80;;;2.17;;
30247;SDS011;17063;50.892;4.702;2023-04-03T09:26:18;3.57;;;2.03;;
30247;SDS011;17063;50.892;4.702;2023-04-03T09:28:49;5.47;;;1.90;;
30247;SDS011;17063;50.892;4.702;2023-04-03T09:33:58;4.47;;;2.07;;
30247;SDS011;17063;50.892;4.702;2023-04-03T09:36:43;3.47;;;1.67;;
30247;SDS011;17063;50.892;4.702;2023-04-03T09:39:22;4.87;;;2.00;;
30247;SDS011;17063;50.892;4.702;2023-04-03T09:42:04;5.07;;;1.93;;
30247;SDS011;17063;50.892;4.702;2023-04-03T09:44:40;5.40;;;2.30;;
30247;SDS011;17063;50.892;4.702;2023-04-03T09:47:29;6.10;;;2.27;;
30247;SDS011;17063;50.892;4.702;2023-04-03T09:52:45;5.40;;;2.10;;
30247;SDS011;17063;50.892;4.702;2023-04-03T09:57:54;3.60;;;1.70;;
30247;SDS011;17063;50.892;4.702;2023-04-03T10:00:26;6.10;;;1.83;;
30247;SDS011;17063;50.892;4.702;2023-04-03T10:02:55;4.37;;;1.73;;
30247;SDS011;17063;50.892;4.702;2023-04-03T10:05:36;3.10;;;1.80;;
30247;SDS011;17063;50.892;4.702;2023-04-03T10:10:40;4.70;;;1.77;;
30247;SDS011;17063;50.892;4.702;2023-04-03T10:13:12;3.27;;;1.47;;
30247;SDS011;17063;50.892;4.702;2023-04-03T10:15:50;3.37;;;1.93;;
30247;SDS011;17063;50.892;4.702;2023-04-03T10:21:29;4.63;;;1.70;;
30247;SDS011;17063;50.892;4.702;2023-04-03T10:35:13;4.53;;;1.70;;
30247;SDS011;17063;50.892;4.702;2023-04-03T10:38:01;2.93;;;1.40;;
30247;SDS011;17063;50.892;4.702;2023-04-03T10:49:05;2.20;;;1.10;;
30247;SDS011;17063;50.892;4.702;2023-04-03T10:51:48;3.60;;;1.50;;
30247;SDS011;17063;50.892;4.702;2023-04-03T10:54:32;2.20;;;1.30;;
30247;SDS011;17063;50.892;4.702;2023-04-03T10:57:09;3.77;;;1.63;;
30247;SDS011;17063;50.892;4.702;2023-04-03T10:59:46;2.40;;;1.30;;
30247;SDS011;17063;50.892;4.702;2023-04-03T11:02:19;5.23;;;1.60;;
30247;SDS011;17063;50.892;4.702;2023-04-03T11:04:55;3.43;;;1.07;;
30247;SDS011;17063;50.892;4.702;2023-04-03T11:07:26;3.77;;;1.50;;
30247;SDS011;17063;50.892;4.702;2023-04-03T11:13:06;3.43;;;1.33;;
30247;SDS011;17063;50.892;4.702;2023-04-03T11:15:39;6.03;;;1.60;;
30247;SDS011;17063;50.892;4.702;2023-04-03T11:18:09;6.17;;;1.67;;
30247;SDS011;17063;50.892;4.702;2023-04-03T11:20:53;4.17;;;1.30;;
30247;SDS011;17063;50.892;4.702;2023-04-03T11:23:30;3.27;;;1.10;;
30247;SDS011;17063;50.892;4.702;2023-04-03T11:26:15;3.27;;;1.23;;
30247;SDS011;17063;50.892;4.702;2023-04-03T11:32:44;4.73;;;1.50;;
30247;SDS011;17063;50.892;4.702;2023-04-03T11:35:22;2.47;;;1.17;;
30247;SDS011;17063;50.892;4.702;2023-04-03T11:37:53;3.93;;;1.60;;
30247;SDS011;17063;50.892;4.702;2023-04-03T11:40:28;1.60;;;1.40;;
30247;SDS011;17063;50.892;4.702;2023-04-03T11:46:04;5.20;;;1.63;;
30247;SDS011;17063;50.892;4.702;2023-04-03T11:50:44;5.27;;;1.20;;
30247;SDS011;17063;50.892;4.702;2023-04-03T12:13:15;2.77;;;0.90;;
30247;SDS011;17063;50.892;4.702;2023-04-03T12:56:50;3.03;;;1.20;;
30247;SDS011;17063;50.892;4.702;2023-04-03T13:05:29;2.03;;;1.20;;
30247;SDS011;17063;50.892;4.702;2023-04-03T13:14:23;5.17;;;1.33;;
30247;SDS011;17063;50.892;4.702;2023-04-03T13:18:31;2.47;;;1.07;;
30247;SDS011;17063;50.892;4.702;2023-04-03T13:26:51;4.50;;;1.20;;
30247;SDS011;17063;50.892;4.702;2023-04-03T13:43:46;2.17;;;1.20;;
30247;SDS011;17063;50.892;4.702;2023-04-03T13:47:47;2.00;;;1.27;;
30247;SDS011;17063;50.892;4.702;2023-04-03T13:51:45;2.87;;;1.00;;
30247;SDS011;17063;50.892;4.702;2023-04-03T14:04:56;2.30;;;1.17;;
30247;SDS011;17063;50.892;4.702;2023-04-03T14:11:37;1.70;;;1.10;;
30247;SDS011;17063;50.892;4.702;2023-04-03T14:14:38;2.87;;;1.00;;
30247;SDS011;17063;50.892;4.702;2023-04-03T14:16:59;1.97;;;0.87;;
30247;SDS011;17063;50.892;4.702;2023-04-03T14:19:34;3.60;;;0.87;;
30247;SDS011;17063;50.892;4.702;2023-04-03T14:22:10;1.00;;;0.90;;
30247;SDS011;17063;50.892;4.702;2023-04-03T14:24:43;2.80;;;1.10;;
30247;SDS011;17063;50.892;4.702;2023-04-03T14:27:20;1.03;;;1.00;;
30247;SDS011;17063;50.892;4.702;2023-04-03T14:29:52;2.63;;;1.20;;
30247;SDS011;17063;50.892;4.702;2023-04-03T14:32:20;2.63;;;0.90;;
30247;SDS011;17063;50.892;4.702;2023-04-03T14:34:49;1.43;;;1.10;;
30247;SDS011;17063;50.892;4.702;2023-04-03T14:37:20;1.80;;;1.07;;
30247;SDS011;17063;50.892;4.702;2023-04-03T14:39:50;3.40;;;1.57;;
30247;SDS011;17063;50.892;4.702;2023-04-03T14:42:19;2.10;;;1.20;;
30247;SDS011;17063;50.892;4.702;2023-04-03T14:44:49;1.27;;;1.17;;
30247;SDS011;17063;50.892;4.702;2023-04-03T14:47:19;3.73;;;1.30;;
30247;SDS011;17063;50.892;4.702;2023-04-03T14:49:58;1.10;;;1.00;;
30247;SDS011;17063;50.892;4.702;2023-04-03T14:52:31;4.63;;;1.13;;
30247;SDS011;17063;50.892;4.702;2023-04-03T14:54:59;3.77;;;1.53;;
30247;SDS011;17063;50.892;4.702;2023-04-03T14:57:28;1.30;;;1.00;;
30247;SDS011;17063;50.892;4.702;2023-04-03T14:59:55;1.63;;;1.20;;
30247;SDS011;17063;50.892;4.702;2023-04-03T15:02:35;1.97;;;1.27;;
30247;SDS011;17063;50.892;4.702;2023-04-03T15:05:05;5.07;;;1.23;;
30247;SDS011;17063;50.892;4.702;2023-04-03T15:07:35;3.87;;;1.13;;
30247;SDS011;17063;50.892;4.702;2023-04-03T15:10:15;2.90;;;1.43;;
30247;SDS011;17063;50.892;4.702;2023-04-03T15:12:44;1.83;;;1.43;;
30247;SDS011;17063;50.892;4.702;2023-04-03T15:15:11;2.70;;;1.10;;
30247;SDS011;17063;50.892;4.702;2023-04-03T15:20:25;1.50;;;1.20;;
30247;SDS011;17063;50.892;4.702;2023-04-03T15:22:54;4.97;;;1.60;;
30247;SDS011;17063;50.892;4.702;2023-04-03T15:25:23;7.97;;;1.73;;
30247;SDS011;17063;50.892;4.702;2023-04-03T15:27:50;4.03;;;1.50;;
30247;SDS011;17063;50.892;4.702;2023-04-03T15:30:17;2.50;;;1.40;;
30247;SDS011;17063;50.892;4.702;2023-04-03T15:32:45;3.30;;;1.60;;
30247;SDS011;17063;50.892;4.702;2023-04-03T15:35:12;5.57;;;1.80;;
30247;SDS011;17063;50.892;4.702;2023-04-03T15:37:39;1.87;;;1.40;;
30247;SDS011;17063;50.892;4.702;2023-04-03T15:40:08;8.57;;;2.27;;
30247;SDS011;17063;50.892;4.702;2023-04-03T15:42:35;2.93;;;1.53;;
30247;SDS011;17063;50.892;4.702;2023-04-03T15:45:02;2.63;;;1.30;;
30247;SDS011;17063;50.892;4.702;2023-04-03T15:47:29;2.63;;;1.50;;
30247;SDS011;17063;50.892;4.702;2023-04-03T15:49:56;2.70;;;1.53;;
30247;SDS011;17063;50.892;4.702;2023-04-03T15:52:25;4.93;;;1.97;;
30247;SDS011;17063;50.892;4.702;2023-04-03T15:54:52;4.10;;;1.60;;
30247;SDS011;17063;50.892;4.702;2023-04-03T15:57:19;4.90;;;1.87;;
30247;SDS011;17063;50.892;4.702;2023-04-03T15:59:46;4.37;;;1.50;;
30247;SDS011;17063;50.892;4.702;2023-04-03T16:02:13;6.53;;;1.80;;
30247;SDS011;17063;50.892;4.702;2023-04-03T16:04:44;2.53;;;1.50;;
30247;SDS011;17063;50.892;4.702;2023-04-03T16:07:11;5.20;;;2.00;;
30247;SDS011;17063;50.892;4.702;2023-04-03T16:09:38;4.83;;;1.70;;
30247;SDS011;17063;50.892;4.702;2023-04-03T16:12:10;3.87;;;1.67;;
30247;SDS011;17063;50.892;4.702;2023-04-03T16:14:40;3.30;;;1.50;;
30247;SDS011;17063;50.892;4.702;2023-04-03T16:17:07;3.67;;;1.40;;
30247;SDS011;17063;50.892;4.702;2023-04-03T16:19:34;3.57;;;1.50;;
30247;SDS011;17063;50.892;4.702;2023-04-03T16:22:01;3.43;;;1.50;;
30247;SDS011;17063;50.892;4.702;2023-04-03T16:24:28;2.00;;;1.70;;
30247;SDS011;17063;50.892;4.702;2023-04-03T16:26:55;3.20;;;1.40;;
30247;SDS011;17063;50.892;4.702;2023-04-03T16:29:22;5.27;;;1.57;;
30247;SDS011;17063;50.892;4.702;2023-04-03T16:31:49;4.43;;;1.70;;
30247;SDS011;17063;50.892;4.702;2023-04-03T16:34:16;4.33;;;1.80;;
30247;SDS011;17063;50.892;4.702;2023-04-03T16:36:43;5.87;;;1.67;;
30247;SDS011;17063;50.892;4.702;2023-04-03T16:39:10;2.67;;;1.50;;
30247;SDS011;17063;50.892;4.702;2023-04-03T16:41:37;6.47;;;1.83;;
30247;SDS011;17063;50.892;4.702;2023-04-03T16:44:04;3.60;;;1.70;;
30247;SDS011;17063;50.892;4.702;2023-04-03T16:46:33;3.60;;;1.13;;
30247;SDS011;17063;50.892;4.702;2023-04-03T16:49:00;2.37;;;1.60;;
30247;SDS011;17063;50.892;4.702;2023-04-03T16:51:27;1.60;;;1.33;;
30247;SDS011;17063;50.892;4.702;2023-04-03T16:53:54;2.30;;;1.40;;
30247;SDS011;17063;50.892;4.702;2023-04-03T16:56:21;4.53;;;1.43;;
30247;SDS011;17063;50.892;4.702;2023-04-03T16:58:48;2.77;;;1.50;;
30247;SDS011;17063;50.892;4.702;2023-04-03T17:01:16;4.73;;;1.40;;
30247;SDS011;17063;50.892;4.702;2023-04-03T17:03:44;3.83;;;1.60;;
30247;SDS011;17063;50.892;4.702;2023-04-03T17:06:12;3.73;;;1.67;;
30247;SDS011;17063;50.892;4.702;2023-04-03T17:08:43;2.67;;;1.43;;
30247;SDS011;17063;50.892;4.702;2023-04-03T17:11:28;3.27;;;1.47;;
30247;SDS011;17063;50.892;4.702;2023-04-03T17:13:55;1.80;;;1.20;;
30247;SDS011;17063;50.892;4.702;2023-04-03T17:16:23;2.87;;;1.20;;
30247;SDS011;17063;50.892;4.702;2023-04-03T17:18:50;2.73;;;1.20;;
30247;SDS011;17063;50.892;4.702;2023-04-03T17:21:19;3.40;;;1.40;;
30247;SDS011;17063;50.892;4.702;2023-04-03T17:23:50;7.23;;;1.53;;
30247;SDS011;17063;50.892;4.702;2023-04-03T17:26:24;6.50;;;1.60;;
30247;SDS011;17063;50.892;4.702;2023-04-03T17:28:52;3.73;;;1.43;;
30247;SDS011;17063;50.892;4.702;2023-04-03T17:31:19;1.80;;;1.40;;
30247;SDS011;17063;50.892;4.702;2023-04-03T17:33:46;2.93;;;1.40;;
30247;SDS011;17063;50.892;4.702;2023-04-03T17:36:13;3.57;;;1.20;;
30247;SDS011;17063;50.892;4.702;2023-04-03T17:38:41;6.57;;;2.10;;
30247;SDS011;17063;50.892;4.702;2023-04-03T17:41:08;3.00;;;1.30;;
30247;SDS011;17063;50.892;4.702;2023-04-03T17:43:35;5.97;;;1.10;;
30247;SDS011;17063;50.892;4.702;2023-04-03T17:46:04;1.70;;;1.00;;
30247;SDS011;17063;50.892;4.702;2023-04-03T17:48:32;3.00;;;1.50;;
30247;SDS011;17063;50.892;4.702;2023-04-03T17:51:08;2.87;;;1.50;;
30247;SDS011;17063;50.892;4.702;2023-04-03T17:53:36;2.00;;;1.30;;
30247;SDS011;17063;50.892;4.702;2023-04-03T17:56:11;3.43;;;1.60;;
30247;SDS011;17063;50.892;4.702;2023-04-03T17:58:39;2.10;;;1.20;;
30247;SDS011;17063;50.892;4.702;2023-04-03T18:01:12;2.57;;;1.30;;
30247;SDS011;17063;50.892;4.702;2023-04-03T18:03:39;4.27;;;1.43;;
30247;SDS011;17063;50.892;4.702;2023-04-03T18:06:08;2.20;;;1.40;;
30247;SDS011;17063;50.892;4.702;2023-04-03T18:08:37;1.57;;;1.30;;
30247;SDS011;17063;50.892;4.702;2023-04-03T18:11:07;1.37;;;1.27;;